Oita Airport
RJFO : now visible

Airfield :











YOU CAN JOIN US ON...

 
LOGIN :

Register | Disclaimer

   EN    FR    IT 

 









Legend :    VFR   Marginal VFR   IFR   Intensive IFR   Very Intensive IFR
Visi :
Ceiling :
>= 8 km
>= 3000ft
5 to 8 km
1000 to 3000 ft
1500m to 5 km
500 to 1000 ft
800 to 1500m
200 to 500 ft
< 800m
< 200 ft
Symbols :   Thunderstorms  Fog  Heavy snow  Heavy precipitations  Wind > 20 kt






- Airport Elevation : 19 ft
- IATA code : OIT


RJFO - Oita

CURRENT METAR :
  • 280500Z 30012KT 270V340 9999 FEW005 SCT015 BKN025 19/16 Q0998

EXPIRED METARs :
  • 280400Z 29008KT 250V320 9999 FEW005 SCT015 BKN025 18/17 Q0997
  • 280300Z 29007KT 240V320 9999 -SHRA FEW003 SCT008 BKN015 17/15 Q0998
  • 280218Z 32005KT 300V010 6000 -SHRA FEW002 BKN008 BKN015 17/16 Q0998 RMK 1ST002 5ST008 6CU015 A2949
  • 280200Z 34006KT 4000 SHRA BR FEW002 SCT005 BKN007 17/16 Q0998
  • 280100Z 34005KT 300V360 4000 SHRA BR FEW003 BKN007 BKN020 16/16 Q0998
  • 280040Z 01006KT 320V030 4500 SHRA BR FEW003 SCT007 BKN020 17/16 Q0998 RMK 1ST003 3ST007 5CU020 A2949
  • 280000Z 34004KT 280V020 7000 -SHRA FEW005 SCT040 BKN060 16/16 Q0999
  • 280013Z 35008KT 310V020 6000 SHRA FEW003 SCT008 BKN040 17/16 Q0999 RMK 1ST003 3ST008 5CU040 A2952

TAF TAF RJFO
Valid from the 28 at 00:00 until the 29 at 06:00 UTC


272313Z 2800/2906 32010KT 7000 -SHRA FEW005 SCT010 BKN015
TEMPO 2800/2802 3000 SHRA BR FEW003 BKN005 BKN008
TEMPO 2803/2809 30016G26KT
BECMG 2900/2903 03010KT
RJJJ FIR / Asia



MET'MAP, your aeronautical weather chart ! - Copyright ORBIFLY December 2007 - Disclaimer

ORBIFLY MET'MAP TEAM :

Programming & Development : Alexandra Zaïnal
Original concept : Baudouin d'Aumeries
Technical & hardware support : Manuel Goepfert
Assistance : Marc-Olivier Méhu




SOURCES & CREDITS :

   NOAA       Earth
Advisory